createdAt,value
2023-02-14T00:01:56.925Z,3.70
2023-02-14T00:04:25.987Z,3.30
2023-02-14T00:06:54.392Z,3.60
2023-02-14T00:09:22.863Z,3.30
2023-02-14T00:11:55.043Z,3.50
2023-02-14T00:14:56.588Z,3.80
2023-02-14T00:17:25.174Z,3.30
2023-02-14T00:19:53.586Z,3.70
2023-02-14T00:22:22.138Z,3.40
2023-02-14T00:24:51.237Z,3.80
2023-02-14T00:27:19.718Z,3.50
2023-02-14T00:29:48.355Z,3.90
2023-02-14T00:32:16.787Z,3.50
2023-02-14T00:34:46.611Z,3.20
2023-02-14T00:37:16.311Z,3.70
2023-02-14T00:39:44.796Z,3.60
2023-02-14T00:42:13.992Z,3.50
2023-02-14T00:44:42.578Z,3.20
2023-02-14T00:47:10.959Z,3.70
2023-02-14T00:49:39.381Z,3.90
2023-02-14T00:52:07.829Z,4.00
2023-02-14T00:54:36.507Z,4.20
2023-02-14T00:57:05.402Z,4.00
2023-02-14T00:59:33.992Z,4.70
2023-02-14T01:02:05.302Z,3.70
2023-02-14T01:04:34.467Z,3.90
2023-02-14T01:07:03.426Z,3.90
2023-02-14T01:09:31.808Z,3.90
2023-02-14T01:12:03.976Z,3.90
2023-02-14T01:14:32.765Z,3.20
2023-02-14T01:17:02.987Z,4.20
2023-02-14T01:19:31.785Z,4.30
2023-02-14T01:24:30.586Z,4.20
2023-02-14T01:27:01.839Z,4.30
2023-02-14T01:29:30.562Z,3.70
2023-02-14T01:31:59.291Z,3.70
2023-02-14T01:34:48.276Z,4.50
2023-02-14T01:37:16.654Z,4.30
2023-02-14T01:39:46.060Z,3.70
2023-02-14T01:42:16.122Z,3.90
2023-02-14T01:44:50.403Z,4.10
2023-02-14T01:47:19.086Z,4.10
2023-02-14T01:52:25.047Z,3.90
2023-02-14T01:54:56.617Z,4.50
2023-02-14T01:57:25.066Z,4.20
2023-02-14T01:59:55.943Z,4.00
2023-02-14T02:02:24.840Z,3.70
2023-02-14T02:04:54.391Z,4.30
2023-02-14T02:07:25.020Z,4.00
2023-02-14T02:09:58.586Z,4.20
2023-02-14T02:12:29.796Z,4.20
2023-02-14T02:15:00.658Z,3.90
2023-02-14T02:18:12.157Z,3.80
2023-02-14T02:21:02.755Z,3.80
2023-02-14T02:23:34.511Z,3.30
2023-02-14T02:26:19.075Z,3.70
2023-02-14T02:28:50.522Z,3.70
2023-02-14T02:31:47.294Z,3.10
2023-02-14T02:34:30.817Z,3.50
2023-02-14T02:37:10.655Z,3.30
2023-02-14T02:40:06.586Z,2.80
2023-02-14T02:43:13.668Z,3.20
2023-02-14T02:46:17.944Z,3.00
2023-02-14T02:48:59.988Z,3.30
2023-02-14T02:52:07.109Z,3.30
2023-02-14T02:54:38.225Z,3.00
2023-02-14T02:57:10.698Z,3.00
2023-02-14T02:59:40.731Z,3.10
2023-02-14T03:02:09.138Z,3.00
2023-02-14T03:04:55.398Z,3.20
2023-02-14T03:07:36.889Z,2.50
2023-02-14T03:10:17.374Z,2.90
2023-02-14T03:13:09.610Z,2.80
2023-02-14T03:15:53.388Z,2.80
2023-02-14T03:18:34.714Z,3.10
2023-02-14T03:21:14.462Z,2.90
2023-02-14T03:24:05.474Z,2.90
2023-02-14T03:26:43.685Z,2.80
2023-02-14T03:29:14.139Z,2.60
2023-02-14T03:32:04.519Z,3.50
2023-02-14T03:35:07.912Z,2.90
2023-02-14T03:37:51.755Z,2.90
2023-02-14T03:40:37.132Z,3.00
2023-02-14T03:43:17.501Z,2.90
2023-02-14T03:45:52.562Z,3.10
2023-02-14T03:48:21.924Z,2.70
2023-02-14T03:50:50.696Z,2.60
2023-02-14T03:53:21.971Z,3.00
2023-02-14T03:56:09.093Z,2.70
2023-02-14T03:58:39.542Z,3.20
2023-02-14T04:01:16.646Z,2.30
2023-02-14T04:03:45.030Z,2.50
2023-02-14T04:06:13.775Z,2.40
2023-02-14T04:08:42.664Z,2.20
2023-02-14T04:11:11.053Z,2.50
2023-02-14T04:13:40.452Z,2.40
2023-02-14T04:16:10.132Z,2.60
2023-02-14T04:18:57.488Z,2.20
2023-02-14T04:21:26.074Z,2.70
2023-02-14T04:23:54.448Z,2.50
2023-02-14T04:26:23.345Z,2.20
2023-02-14T04:28:52.133Z,2.20
2023-02-14T04:31:20.623Z,2.10
2023-02-14T04:33:51.488Z,2.00
2023-02-14T04:36:19.830Z,2.30
2023-02-14T04:38:48.433Z,2.30
2023-02-14T04:41:17.000Z,2.00
2023-02-14T04:43:45.483Z,2.00
2023-02-14T04:46:14.435Z,2.50
2023-02-14T04:48:42.857Z,2.10
2023-02-14T04:51:11.236Z,2.00
2023-02-14T04:53:40.663Z,2.10
2023-02-14T04:56:14.349Z,2.20
2023-02-14T04:58:42.521Z,2.10
2023-02-14T05:01:10.949Z,2.30
2023-02-14T05:03:39.384Z,2.40
2023-02-14T05:06:08.384Z,2.30
2023-02-14T05:08:36.681Z,3.00
2023-02-14T05:11:05.360Z,2.30
2023-02-14T05:13:33.925Z,2.10
2023-02-14T05:16:02.885Z,2.10
2023-02-14T05:18:31.823Z,2.20
2023-02-14T05:21:00.482Z,1.70
2023-02-14T05:23:29.497Z,1.40
2023-02-14T05:25:57.876Z,2.00
2023-02-14T05:28:26.257Z,2.10
2023-02-14T05:30:55.186Z,1.80
2023-02-14T05:33:24.759Z,1.20
2023-02-14T05:35:53.239Z,1.70
2023-02-14T05:38:24.792Z,2.30
2023-02-14T05:40:53.171Z,2.20
2023-02-14T05:43:21.657Z,1.80
2023-02-14T05:45:51.586Z,1.80
2023-02-14T05:48:20.054Z,1.70
2023-02-14T05:50:48.559Z,1.70
2023-02-14T05:53:17.233Z,1.80
2023-02-14T05:55:45.606Z,1.90
2023-02-14T05:58:14.092Z,1.50
2023-02-14T06:00:42.592Z,1.60
2023-02-14T06:03:11.366Z,1.80
2023-02-14T06:05:40.568Z,1.60
2023-02-14T06:08:09.457Z,1.90
2023-02-14T06:10:38.563Z,1.90
2023-02-14T06:13:12.158Z,2.40
2023-02-14T06:15:41.869Z,2.10
2023-02-14T06:18:10.404Z,2.20
2023-02-14T06:20:38.958Z,2.40
2023-02-14T06:23:07.438Z,2.00
2023-02-14T06:25:35.823Z,1.70
2023-02-14T06:28:04.215Z,2.20
2023-02-14T06:30:34.100Z,1.80
2023-02-14T06:33:02.807Z,2.30
2023-02-14T06:35:35.985Z,2.00
2023-02-14T06:38:04.361Z,1.60
2023-02-14T06:40:32.739Z,1.70
2023-02-14T06:43:01.456Z,1.80
2023-02-14T06:45:29.920Z,2.00
2023-02-14T06:48:00.369Z,2.20
2023-02-14T06:52:57.205Z,2.10
2023-02-14T06:55:25.991Z,1.70
2023-02-14T06:57:56.318Z,1.60
2023-02-14T07:00:24.700Z,1.80
2023-02-14T07:02:54.039Z,1.60
2023-02-14T07:05:22.791Z,1.90
2023-02-14T08:47:45.579Z,2.00
2023-02-14T08:50:16.621Z,1.50
2023-02-14T08:52:45.009Z,1.30
2023-02-14T08:55:13.689Z,1.60
2023-02-14T08:57:43.226Z,1.50
2023-02-14T09:00:12.802Z,1.90
2023-02-14T09:02:43.549Z,1.60
2023-02-14T09:05:13.360Z,1.80
2023-02-14T09:07:41.734Z,1.50
2023-02-14T09:10:10.660Z,2.30
2023-02-14T09:12:41.681Z,1.70
2023-02-14T09:15:10.696Z,1.90
2023-02-14T09:17:39.268Z,1.80
2023-02-14T09:20:09.372Z,1.60
2023-02-14T09:22:37.891Z,1.60
2023-02-14T09:25:06.953Z,1.50
2023-02-14T09:27:36.569Z,1.90
2023-02-14T09:30:09.622Z,1.90
2023-02-14T09:32:39.484Z,1.60
2023-02-14T09:35:08.521Z,1.60
2023-02-14T09:37:55.586Z,1.90
2023-02-14T09:40:24.990Z,1.80
2023-02-14T09:43:02.334Z,2.10
2023-02-14T09:45:31.614Z,1.80
2023-02-14T09:48:04.681Z,1.80
2023-02-14T09:50:40.633Z,1.40
2023-02-14T09:53:33.301Z,1.60
2023-02-14T09:56:20.200Z,1.40
2023-02-14T09:59:19.003Z,2.10
2023-02-14T10:01:50.465Z,1.60
2023-02-14T10:04:40.144Z,2.10
2023-02-14T10:07:24.187Z,1.90
2023-02-14T10:09:56.449Z,1.70
2023-02-14T10:12:37.119Z,1.70
2023-02-14T10:15:13.688Z,1.40
2023-02-14T10:17:53.746Z,1.50
2023-02-14T10:23:35.269Z,1.80
2023-02-14T10:26:05.958Z,1.40
2023-02-14T10:28:36.324Z,2.20
2023-02-14T10:31:27.776Z,1.90
2023-02-14T10:33:59.914Z,2.20
2023-02-14T10:36:34.743Z,1.80
2023-02-14T10:39:19.200Z,2.10
2023-02-14T10:42:11.035Z,1.80
2023-02-14T10:45:12.911Z,1.80
2023-02-14T10:47:57.663Z,1.60
2023-02-14T10:50:36.900Z,1.60
2023-02-14T10:53:29.454Z,1.40
2023-02-14T11:19:27.704Z,1.80
2023-02-14T11:21:57.710Z,1.50
2023-02-14T11:24:26.514Z,1.50
2023-02-14T11:26:59.525Z,1.80
2023-02-14T11:29:29.413Z,1.70
2023-02-14T11:31:58.059Z,1.50
2023-02-14T11:34:33.958Z,1.50
2023-02-14T11:37:26.094Z,1.60
2023-02-14T11:39:55.831Z,1.70
2023-02-14T11:42:40.373Z,1.60
2023-02-14T11:45:33.428Z,2.00
2023-02-14T11:48:36.576Z,1.50
2023-02-14T11:51:14.596Z,1.60
2023-02-14T11:53:55.002Z,1.40
2023-02-14T11:56:23.950Z,1.30
2023-02-14T11:59:00.965Z,1.70
2023-02-14T12:01:31.239Z,1.30
2023-02-14T12:04:05.538Z,1.60
2023-02-14T12:06:35.610Z,1.90
2023-02-14T12:09:22.322Z,1.30
2023-02-14T12:12:00.882Z,1.50
2023-02-14T12:14:31.294Z,1.90
2023-02-14T12:17:08.175Z,1.60
2023-02-14T12:19:36.863Z,2.40
2023-02-14T12:22:06.473Z,2.50
2023-02-14T12:24:38.552Z,1.60
2023-02-14T12:27:30.607Z,1.70
2023-02-14T12:30:19.567Z,1.50
2023-02-14T12:32:50.481Z,1.50
2023-02-14T12:35:40.771Z,1.80
2023-02-14T12:38:24.709Z,1.50
2023-02-14T12:41:18.893Z,1.70
2023-02-14T12:43:57.230Z,1.50
2023-02-14T12:46:44.032Z,2.10
2023-02-14T12:49:47.936Z,1.70
2023-02-14T12:52:44.683Z,2.00
2023-02-14T12:55:25.450Z,2.20
2023-02-14T12:58:11.781Z,1.80
2023-02-14T13:01:05.425Z,1.80
2023-02-14T13:03:39.643Z,1.60
2023-02-14T13:06:17.655Z,1.50
2023-02-14T13:09:05.708Z,1.40
2023-02-14T13:11:45.336Z,1.80
2023-02-14T13:14:37.165Z,1.70
2023-02-14T13:17:18.758Z,1.90
2023-02-14T13:19:56.041Z,1.70
2023-02-14T13:22:25.459Z,1.70
2023-02-14T13:25:31.819Z,1.50
2023-02-14T13:28:02.044Z,1.60
2023-02-14T13:30:41.436Z,1.80
2023-02-14T13:33:18.765Z,1.90
2023-02-14T13:35:47.188Z,1.40
2023-02-14T13:38:16.460Z,1.60
2023-02-14T13:40:45.951Z,2.10
2023-02-14T13:43:14.331Z,1.60
2023-02-14T13:45:53.956Z,1.80
2023-02-14T13:48:26.662Z,1.40
2023-02-14T13:51:03.333Z,1.60
2023-02-14T13:53:41.032Z,2.10
2023-02-14T13:56:12.393Z,1.60
2023-02-14T13:58:52.450Z,1.70
2023-02-14T14:03:59.250Z,2.00
2023-02-14T14:06:29.376Z,1.60
2023-02-14T14:09:01.618Z,1.90
2023-02-14T14:11:33.583Z,1.60
2023-02-14T14:14:21.213Z,1.70
2023-02-14T14:16:59.180Z,1.40
2023-02-14T14:19:27.498Z,1.80
2023-02-14T14:22:14.520Z,1.80
2023-02-14T14:24:56.311Z,1.50
2023-02-14T14:27:33.804Z,1.60
2023-02-14T14:30:07.135Z,1.60
2023-02-14T14:32:39.180Z,1.70
2023-02-14T14:35:21.679Z,1.40
2023-02-14T14:37:54.979Z,1.50
2023-02-14T14:40:33.494Z,1.70
2023-02-14T14:43:21.943Z,1.60
2023-02-14T14:45:53.184Z,1.80
2023-02-14T14:48:42.767Z,1.60
2023-02-14T14:51:30.301Z,1.70
2023-02-14T14:54:01.212Z,2.00
2023-02-14T14:56:37.505Z,2.10
2023-02-14T14:59:19.620Z,2.10
2023-02-14T15:01:48.555Z,2.00
2023-02-14T15:04:33.772Z,1.70
2023-02-14T15:07:34.956Z,2.00
2023-02-14T15:10:03.566Z,1.90
2023-02-14T15:12:51.052Z,2.30
2023-02-14T15:15:19.537Z,3.20
2023-02-14T15:17:51.595Z,2.30
2023-02-14T15:20:21.819Z,2.20
2023-02-14T15:22:51.270Z,1.80
2023-02-14T15:25:27.690Z,1.50
2023-02-14T15:27:56.997Z,1.60
2023-02-14T15:30:30.998Z,1.40
2023-02-14T15:33:06.065Z,1.30
2023-02-14T15:35:43.027Z,1.50
2023-02-14T15:38:11.836Z,1.60
2023-02-14T15:40:40.604Z,1.40
2023-02-14T15:43:16.474Z,1.50
2023-02-14T15:45:46.510Z,1.50
2023-02-14T15:48:33.738Z,1.70
2023-02-14T15:51:02.705Z,1.50
2023-02-14T15:53:42.514Z,1.50
2023-02-14T15:56:22.299Z,1.70
2023-02-14T15:59:00.417Z,1.50
2023-02-14T16:04:01.383Z,1.50
2023-02-14T16:06:43.873Z,2.40
2023-02-14T16:09:27.185Z,2.10
2023-02-14T16:11:58.357Z,1.80
2023-02-14T16:14:37.484Z,2.00
2023-02-14T16:17:14.357Z,2.40
2023-02-14T16:19:44.994Z,2.00
2023-02-14T16:22:24.242Z,2.20
2023-02-14T16:24:52.609Z,2.10
2023-02-14T16:27:23.750Z,2.10
2023-02-14T16:29:52.168Z,2.40
2023-02-14T16:32:21.823Z,2.30
2023-02-14T16:34:50.429Z,1.90
2023-02-14T16:37:36.322Z,2.00
2023-02-14T16:40:06.866Z,2.10
2023-02-14T16:42:37.198Z,1.80
2023-02-14T16:45:06.506Z,1.50
2023-02-14T16:47:35.233Z,1.50
2023-02-14T16:50:03.658Z,1.50
2023-02-14T16:52:32.239Z,1.70
2023-02-14T16:55:00.719Z,1.60
2023-02-14T16:57:30.994Z,1.80
2023-02-14T16:59:59.439Z,1.50
2023-02-14T17:02:28.762Z,2.10
2023-02-14T17:04:57.418Z,2.00
2023-02-14T17:07:25.799Z,2.00
2023-02-14T17:12:27.782Z,1.90
2023-02-14T17:15:00.264Z,2.40
2023-02-14T17:17:29.867Z,2.10
2023-02-14T17:19:58.763Z,1.50
2023-02-14T17:22:27.264Z,2.00
2023-02-14T17:24:57.060Z,1.90
2023-02-14T17:27:26.055Z,1.90
2023-02-14T17:29:54.572Z,1.60
2023-02-14T17:32:23.479Z,1.50
2023-02-14T17:34:52.479Z,1.70
2023-02-14T17:37:20.910Z,1.70
2023-02-14T17:39:49.394Z,1.70
2023-02-14T17:42:17.977Z,1.60
2023-02-14T17:44:46.558Z,1.90
2023-02-14T17:47:16.476Z,1.60
2023-02-14T17:52:16.411Z,1.10
2023-02-14T17:54:44.797Z,1.40
2023-02-14T17:57:13.176Z,1.30
2023-02-14T17:59:47.086Z,1.60
2023-02-14T18:02:15.473Z,1.20
2023-02-14T18:04:43.985Z,1.70
2023-02-14T18:09:43.479Z,1.10
2023-02-14T18:12:15.111Z,1.40
2023-02-14T18:14:44.538Z,1.50
2023-02-14T18:17:13.861Z,1.60
2023-02-14T18:19:42.340Z,1.60
2023-02-14T18:22:10.995Z,1.70
2023-02-14T18:24:40.621Z,2.30
2023-02-14T18:27:09.656Z,2.00
2023-02-14T18:29:39.536Z,2.20
2023-02-14T18:32:08.248Z,2.00
2023-02-14T18:34:38.336Z,2.20
2023-02-14T18:37:06.717Z,2.20
2023-02-14T18:39:40.427Z,1.90
2023-02-14T18:42:08.912Z,2.00
2023-02-14T18:44:37.395Z,1.90
2023-02-14T18:47:07.513Z,2.00
2023-02-14T18:49:35.891Z,2.50
2023-02-14T18:52:05.310Z,2.50
2023-02-14T18:54:33.775Z,2.10
2023-02-14T18:57:02.269Z,2.00
2023-02-14T18:59:30.844Z,2.10
2023-02-14T19:01:59.251Z,2.60
2023-02-14T19:04:29.244Z,2.70
2023-02-14T19:06:59.675Z,2.60
2023-02-14T19:09:29.701Z,2.70
2023-02-14T19:12:03.335Z,2.80
2023-02-14T19:14:31.987Z,2.70
2023-02-14T19:17:00.525Z,3.10
2023-02-14T19:19:29.259Z,2.90
2023-02-14T19:22:01.043Z,4.10
2023-02-14T19:24:29.611Z,3.60
2023-02-14T19:26:58.402Z,3.60
2023-02-14T19:29:27.194Z,2.90
2023-02-14T19:31:56.384Z,2.80
2023-02-14T19:34:32.142Z,2.40
2023-02-14T19:37:01.446Z,1.70
2023-02-14T19:39:30.863Z,1.70
2023-02-14T19:41:59.766Z,1.70
2023-02-14T19:44:31.423Z,1.80
2023-02-14T19:47:04.183Z,2.20
2023-02-14T19:49:38.813Z,1.90
2023-02-14T19:54:45.813Z,1.90
2023-02-14T19:57:14.603Z,2.00
2023-02-14T19:59:42.987Z,2.50
2023-02-14T20:02:14.181Z,2.30
2023-02-14T20:04:42.830Z,2.10
2023-02-14T20:07:11.713Z,2.10
2023-02-14T20:09:40.209Z,1.70
2023-02-14T20:12:09.906Z,1.60
2023-02-14T20:17:21.722Z,1.80
2023-02-14T20:19:50.919Z,1.30
2023-02-14T20:22:20.530Z,1.90
2023-02-14T20:24:49.116Z,1.60
2023-02-14T20:27:17.803Z,1.80
2023-02-14T20:29:46.489Z,2.00
2023-02-14T20:32:16.224Z,2.00
2023-02-14T20:34:45.605Z,1.70
2023-02-14T20:37:14.293Z,2.10
2023-02-14T20:39:42.675Z,1.90
2023-02-14T20:42:11.362Z,2.20
2023-02-14T20:44:41.793Z,2.20
2023-02-14T20:47:11.324Z,2.40
2023-02-14T20:49:40.297Z,3.20
2023-02-14T20:52:08.572Z,2.90
2023-02-14T20:54:39.519Z,2.60
2023-02-14T20:57:07.896Z,2.50
2023-02-14T20:59:37.619Z,2.50
2023-02-14T21:02:07.725Z,2.00
2023-02-14T21:04:36.110Z,1.70
2023-02-14T21:07:09.101Z,1.60
2023-02-14T21:09:40.343Z,1.90
2023-02-14T21:14:37.719Z,1.60
2023-02-14T21:17:06.310Z,1.60
2023-02-14T21:19:34.692Z,1.70
2023-02-14T21:22:06.449Z,1.60
2023-02-14T21:24:35.033Z,1.90
2023-02-14T21:27:03.377Z,1.80
2023-02-14T21:29:32.716Z,1.90
2023-02-14T21:32:03.410Z,1.90
2023-02-14T21:34:33.579Z,1.70
2023-02-14T21:37:01.958Z,1.90
2023-02-14T21:39:35.970Z,2.40
2023-02-14T21:42:05.620Z,2.40
2023-02-14T21:44:57.362Z,2.40
2023-02-14T21:47:26.509Z,1.80
2023-02-14T21:50:13.527Z,1.80
2023-02-14T21:52:42.119Z,1.80
2023-02-14T21:55:10.493Z,1.90
2023-02-14T21:57:38.979Z,1.70
2023-02-14T22:00:08.533Z,1.70
2023-02-14T22:02:39.992Z,1.50
2023-02-14T22:05:08.626Z,1.60
2023-02-14T22:07:37.213Z,1.60
2023-02-14T22:10:06.622Z,1.70
2023-02-14T22:12:35.405Z,2.00
2023-02-14T22:15:05.422Z,1.80
2023-02-14T22:17:36.057Z,1.60
2023-02-14T22:20:06.299Z,1.50
2023-02-14T22:22:35.385Z,2.10
2023-02-14T22:25:03.771Z,1.80
2023-02-14T22:27:32.555Z,2.00
2023-02-14T22:30:03.090Z,1.90
2023-02-14T22:32:31.666Z,2.00
2023-02-14T22:35:00.047Z,2.30
2023-02-14T22:37:28.435Z,2.20
2023-02-14T22:39:56.931Z,2.50
2023-02-14T22:42:25.505Z,2.20
2023-02-14T22:44:53.877Z,2.60
2023-02-14T22:47:22.258Z,2.00
2023-02-14T22:49:50.639Z,1.70
2023-02-14T22:52:19.408Z,1.60
2023-02-14T22:54:48.526Z,1.90
2023-02-14T22:57:18.031Z,1.80
2023-02-14T22:59:48.464Z,1.90
2023-02-14T23:02:16.842Z,1.90
2023-02-14T23:04:45.650Z,1.60
2023-02-14T23:07:14.116Z,2.60
2023-02-14T23:12:36.992Z,0.90
2023-02-14T23:15:25.240Z,1.60
2023-02-14T23:18:12.972Z,1.20
2023-02-14T23:21:07.873Z,1.20
2023-02-14T23:23:36.563Z,1.30
2023-02-14T23:26:51.334Z,1.40
2023-02-14T23:29:19.711Z,1.30
2023-02-14T23:31:48.299Z,1.50
2023-02-14T23:34:18.418Z,1.40
2023-02-14T23:36:47.315Z,1.40
2023-02-14T23:39:15.795Z,1.50
2023-02-14T23:41:53.188Z,1.70
2023-02-14T23:44:23.751Z,1.30
2023-02-14T23:46:53.656Z,1.80
2023-02-14T23:51:51.128Z,1.90
2023-02-14T23:54:19.911Z,1.60
2023-02-14T23:56:48.803Z,1.70
2023-02-14T23:59:17.446Z,1.40
